Time;durP1;ratioP1;P1;durP2;ratioP2;P2;SDS_P1;SDS_P2;PMS_P1;PMS_P2;Temp;Humidity;BMP_temperature;BMP_pressure;BME280_temperature;BME280_humidity;BME280_pressure;Samples;Min_cycle;Max_cycle;Signal;HPM_P1;HPM_P2
2022/10/22 00:01:42;;;;;;;10.13;4.07;;;18.60;85.60;;;;;;5113445;28;20011;-71
2022/10/22 00:04:08;;;;;;;10.20;3.85;;;18.60;85.60;;;;;;5113643;28;20034;-71
2022/10/22 00:06:34;;;;;;;8.75;3.88;;;18.60;85.60;;;;;;5103322;28;20047;-70
2022/10/22 00:08:59;;;;;;;5.47;3.40;;;18.60;85.60;;;;;;5091941;28;20107;-70
2022/10/22 00:11:25;;;;;;;8.25;3.65;;;18.60;85.60;;;;;;5092866;28;20030;-71
2022/10/22 00:13:50;;;;;;;6.57;3.25;;;18.60;85.70;;;;;;5098721;28;20413;-71
2022/10/22 00:16:16;;;;;;;8.50;3.63;;;18.60;85.60;;;;;;5113258;28;20553;-71
2022/10/22 00:18:42;;;;;;;5.60;3.20;;;18.60;85.60;;;;;;5113045;28;20023;-71
2022/10/22 00:21:07;;;;;;;7.10;3.60;;;18.60;85.70;;;;;;5113218;28;20027;-71
2022/10/22 00:23:33;;;;;;;9.02;3.00;;;18.60;85.70;;;;;;5111913;28;20055;-71
2022/10/22 00:25:59;;;;;;;6.10;3.15;;;18.60;85.70;;;;;;5113103;28;20093;-71
2022/10/22 00:28:24;;;;;;;6.88;3.40;;;18.60;85.70;;;;;;5113141;28;20031;-71
2022/10/22 00:30:57;;;;;;;6.07;3.22;;;18.60;85.70;;;;;;5111635;28;20027;-71
2022/10/22 00:33:23;;;;;;;6.40;3.28;;;18.60;85.70;;;;;;5111321;28;20032;-71
2022/10/22 00:35:49;;;;;;;8.65;3.20;;;18.60;85.70;;;;;;5113033;28;20012;-71
2022/10/22 00:38:14;;;;;;;8.77;3.67;;;18.60;85.70;;;;;;5113138;28;20050;-71
2022/10/22 00:40:40;;;;;;;8.85;3.45;;;18.60;85.70;;;;;;5112865;28;20019;-71
2022/10/22 00:43:11;;;;;;;6.78;3.50;;;18.60;85.70;;;;;;5112936;28;20489;-71
2022/10/22 00:45:37;;;;;;;9.32;3.55;;;18.60;85.80;;;;;;5095000;28;20103;-71
2022/10/22 00:48:24;;;;;;;5.40;3.17;;;18.60;85.80;;;;;;5112957;28;20473;-71
2022/10/22 00:50:55;;;;;;;5.32;3.40;;;18.60;85.70;;;;;;5111650;28;20016;-71
2022/10/22 00:53:29;;;;;;;8.95;3.45;;;18.50;85.80;;;;;;5111486;28;20035;-71
2022/10/22 00:55:54;;;;;;;6.50;2.80;;;18.60;85.80;;;;;;5111361;28;20031;-71
2022/10/22 00:58:22;;;;;;;6.38;3.00;;;18.60;85.80;;;;;;5078316;28;20050;-70
2022/10/22 01:00:48;;;;;;;4.93;3.25;;;18.60;85.80;;;;;;5111483;28;20012;-71
2022/10/22 01:03:13;;;;;;;6.20;3.00;;;18.60;85.80;;;;;;5111607;28;20030;-71
2022/10/22 01:05:50;;;;;;;5.47;3.00;;;18.60;85.80;;;;;;5110528;28;20038;-71
2022/10/22 01:08:39;;;;;;;5.88;3.15;;;18.60;85.80;;;;;;5091157;28;20031;-71
2022/10/22 01:11:14;;;;;;;7.05;2.80;;;18.60;85.80;;;;;;5091266;28;20039;-71
2022/10/22 01:13:54;;;;;;;5.55;3.00;;;18.60;85.80;;;;;;5096263;28;20120;-71
2022/10/22 01:16:29;;;;;;;9.07;3.25;;;18.60;85.80;;;;;;5111679;28;20103;-71
2022/10/22 01:19:04;;;;;;;5.35;2.78;;;18.60;85.80;;;;;;5111383;28;20037;-71
2022/10/22 01:21:42;;;;;;;6.32;3.17;;;18.60;85.90;;;;;;5112537;28;20031;-71
2022/10/22 01:24:11;;;;;;;6.30;2.70;;;18.60;85.90;;;;;;5095050;28;20157;-71
2022/10/22 01:26:40;;;;;;;7.85;3.25;;;18.60;85.90;;;;;;5111263;28;20019;-71
2022/10/22 01:29:13;;;;;;;5.50;2.92;;;18.50;85.80;;;;;;5111234;28;20027;-70
2022/10/22 01:31:40;;;;;;;;;;;18.60;85.90;;;;;;5111708;28;20030;-71
2022/10/22 01:34:06;;;;;;;6.50;2.92;;;18.60;85.90;;;;;;5111486;28;19908;-71
2022/10/22 01:36:32;;;;;;;8.32;2.92;;;18.50;85.90;;;;;;5094404;28;20016;-71
2022/10/22 01:38:58;;;;;;;6.43;3.00;;;18.50;85.90;;;;;;5094211;28;20016;-71
2022/10/22 01:41:23;;;;;;;3.83;2.53;;;18.60;85.90;;;;;;5111321;28;20111;-70
2022/10/22 01:43:49;;;;;;;6.68;3.50;;;18.60;85.90;;;;;;5094071;28;20130;-70
2022/10/22 01:46:14;;;;;;;5.95;3.08;;;18.60;85.90;;;;;;5115798;28;20053;-71
2022/10/22 01:49:15;;;;;;;8.85;3.17;;;18.60;85.90;;;;;;5097904;28;20077;-70
2022/10/22 01:51:44;;;;;;;6.88;3.03;;;18.60;85.90;;;;;;5114908;28;20020;-70
2022/10/22 01:54:25;;;;;;;6.28;3.00;;;18.60;86.00;;;;;;5116008;28;20405;-70
2022/10/22 01:57:16;;;;;;;6.82;3.33;;;18.60;86.00;;;;;;5115830;28;20019;-70
2022/10/22 02:00:02;;;;;;;6.00;2.75;;;18.60;85.90;;;;;;5114855;28;20534;-70
2022/10/22 02:02:51;;;;;;;4.78;2.88;;;18.60;86.00;;;;;;5115780;28;20019;-70
2022/10/22 02:05:38;;;;;;;6.72;3.03;;;18.60;86.00;;;;;;5114824;28;20024;-70
2022/10/22 02:08:23;;;;;;;4.13;2.67;;;18.60;86.10;;;;;;5075092;28;20028;-70
2022/10/22 02:10:49;;;;;;;6.88;2.78;;;18.60;86.00;;;;;;5057551;28;20016;-70
2022/10/22 02:13:17;;;;;;;5.13;2.60;;;18.60;86.10;;;;;;5060799;28;20033;-70
2022/10/22 02:15:44;;;;;;;7.43;3.08;;;18.50;85.90;;;;;;5114597;28;20027;-71
2022/10/22 02:18:09;;;;;;;5.93;2.70;;;18.60;86.00;;;;;;5097689;28;20501;-71
2022/10/22 02:20:35;;;;;;;5.35;2.67;;;18.60;86.00;;;;;;5097447;28;20026;-70
2022/10/22 02:23:01;;;;;;;4.80;2.58;;;18.60;86.00;;;;;;5097267;28;20024;-71
2022/10/22 02:25:31;;;;;;;4.72;2.67;;;18.60;86.00;;;;;;5114071;28;20080;-71
2022/10/22 02:28:23;;;;;;;6.22;2.58;;;18.60;86.00;;;;;;5114156;28;20015;-70
2022/10/22 02:30:53;;;;;;;5.00;2.50;;;18.60;86.00;;;;;;5104648;28;20047;-71
2022/10/22 02:33:22;;;;;;;5.00;2.47;;;18.50;86.00;;;;;;5097315;28;20069;-71
2022/10/22 02:35:47;;;;;;;6.03;2.25;;;18.60;86.00;;;;;;5097249;28;20027;-71
2022/10/22 02:38:13;;;;;;;4.32;2.60;;;18.60;86.00;;;;;;5097240;28;20023;-71
2022/10/22 02:40:38;;;;;;;4.68;2.85;;;18.60;86.00;;;;;;5096779;28;20030;-71
2022/10/22 02:43:04;;;;;;;6.30;2.60;;;18.60;86.00;;;;;;5113863;28;20046;-71
2022/10/22 02:45:30;;;;;;;4.95;2.15;;;18.60;86.00;;;;;;5097200;28;20028;-71
2022/10/22 02:47:56;;;;;;;6.03;2.88;;;18.60;86.00;;;;;;5096864;28;20512;-70
2022/10/22 02:50:21;;;;;;;5.93;2.83;;;18.60;86.00;;;;;;5114931;28;20026;-70
2022/10/22 02:52:47;;;;;;;8.75;2.67;;;18.60;86.00;;;;;;5114890;28;20028;-71
2022/10/22 02:55:13;;;;;;;5.85;2.25;;;18.60;86.00;;;;;;5113237;28;20036;-70
2022/10/22 02:57:38;;;;;;;3.63;2.40;;;18.60;86.00;;;;;;5115048;28;20546;-71
2022/10/22 03:00:05;;;;;;;8.13;3.35;;;18.60;86.00;;;;;;5114703;28;20042;-71
2022/10/22 03:02:31;;;;;;;4.72;2.47;;;18.50;85.90;;;;;;5113472;28;20019;-71
2022/10/22 03:04:56;;;;;;;5.03;2.78;;;18.60;86.00;;;;;;5114715;28;20023;-70
2022/10/22 03:07:22;;;;;;;4.45;2.20;;;18.60;86.00;;;;;;5097880;28;20387;-71
2022/10/22 03:09:48;;;;;;;4.78;2.67;;;18.60;86.00;;;;;;5093969;28;20509;-71
2022/10/22 03:12:13;;;;;;;5.85;2.78;;;18.60;86.00;;;;;;5094189;28;20031;-70
2022/10/22 03:14:39;;;;;;;4.80;2.47;;;18.60;86.00;;;;;;5107755;28;20028;-71
2022/10/22 03:17:04;;;;;;;6.75;2.72;;;18.50;86.00;;;;;;5114581;28;20024;-71
2022/10/22 03:19:30;;;;;;;4.47;2.60;;;18.50;86.00;;;;;;5113274;28;20027;-70
2022/10/22 03:22:00;;;;;;;4.85;2.30;;;18.50;86.00;;;;;;5114379;28;20020;-71
2022/10/22 03:24:45;;;;;;;3.22;2.13;;;18.60;86.00;;;;;;5096577;28;20110;-71
2022/10/22 03:27:11;;;;;;;3.70;2.08;;;18.60;86.00;;;;;;5096237;28;20107;-71
2022/10/22 03:29:37;;;;;;;7.00;2.60;;;18.50;86.10;;;;;;5096124;28;20019;-71
2022/10/22 03:32:03;;;;;;;5.43;2.40;;;18.50;86.10;;;;;;5095996;28;20043;-71
2022/10/22 03:34:29;;;;;;;9.40;2.72;;;18.50;86.10;;;;;;5095091;28;20059;-71
2022/10/22 03:36:56;;;;;;;3.55;1.85;;;18.50;86.20;;;;;;5092671;28;20111;-71
2022/10/22 03:39:21;;;;;;;15.38;2.70;;;18.60;86.20;;;;;;5092644;28;20056;-70
2022/10/22 03:41:47;;;;;;;7.03;2.40;;;18.60;86.20;;;;;;5092892;28;20583;-71
2022/10/22 03:44:14;;;;;;;10.18;2.63;;;18.60;86.00;;;;;;5092840;28;20119;-71
2022/10/22 03:46:39;;;;;;;4.72;2.20;;;18.60;86.10;;;;;;5092671;28;20111;-70
2022/10/22 03:49:05;;;;;;;5.70;2.35;;;18.60;86.20;;;;;;5094341;28;20060;-70
2022/10/22 03:51:31;;;;;;;5.88;2.35;;;18.50;86.10;;;;;;5094123;28;20461;-71
2022/10/22 03:53:56;;;;;;;7.70;2.83;;;18.50;86.00;;;;;;5093495;28;20032;-71
2022/10/22 03:56:22;;;;;;;3.70;2.45;;;18.60;86.10;;;;;;5085300;28;20036;-71
2022/10/22 03:58:48;;;;;;;6.10;2.63;;;18.60;86.10;;;;;;5076176;28;20028;-71
2022/10/22 04:01:13;;;;;;;6.05;2.65;;;18.60;86.20;;;;;;5071804;28;20031;-71
2022/10/22 04:03:39;;;;;;;3.55;1.95;;;18.60;86.20;;;;;;5071806;28;20031;-71
2022/10/22 04:06:14;;;;;;;6.47;2.22;;;18.60;86.20;;;;;;5077103;28;20020;-71
2022/10/22 04:08:40;;;;;;;5.47;2.20;;;18.60;87.20;;;;;;5091006;28;20024;-71
2022/10/22 04:11:06;;;;;;;5.13;2.20;;;18.50;86.10;;;;;;5092033;28;20513;-71
2022/10/22 04:13:31;;;;;;;5.72;2.17;;;18.60;86.20;;;;;;5097460;28;20028;-71
2022/10/22 04:16:17;;;;;;;5.40;2.08;;;18.60;86.20;;;;;;5113355;28;20145;-71
2022/10/22 04:18:43;;;;;;;4.25;2.42;;;18.50;86.10;;;;;;5113195;28;20051;-71
2022/10/22 04:21:10;;;;;;;5.40;2.70;;;18.60;86.30;;;;;;5095095;28;20088;-71
2022/10/22 04:23:36;;;;;;;7.47;2.25;;;18.60;86.20;;;;;;5113130;28;20031;-71
2022/10/22 04:26:03;;;;;;;4.85;2.10;;;18.60;86.30;;;;;;5113187;28;20030;-71
2022/10/22 04:28:28;;;;;;;4.82;2.13;;;18.50;86.20;;;;;;5111924;28;20389;-71
2022/10/22 04:30:54;;;;;;;5.85;2.58;;;18.50;86.10;;;;;;5111883;28;20023;-71
2022/10/22 04:33:20;;;;;;;5.75;2.42;;;18.60;86.20;;;;;;5112952;28;20035;-71
2022/10/22 04:35:45;;;;;;;6.80;2.40;;;18.50;86.20;;;;;;5113086;28;20023;-71
2022/10/22 04:38:11;;;;;;;5.55;2.17;;;18.50;86.10;;;;;;5111705;28;20031;-70
2022/10/22 04:40:36;;;;;;;5.38;2.15;;;18.50;86.10;;;;;;5112887;28;20034;-71
2022/10/22 04:43:02;;;;;;;4.88;2.22;;;18.50;86.20;;;;;;5113052;28;20374;-71
2022/10/22 04:45:28;;;;;;;5.43;2.17;;;18.50;86.10;;;;;;5113075;28;20497;-71
2022/10/22 04:47:53;;;;;;;4.82;1.75;;;18.50;86.20;;;;;;5112970;28;20028;-71
2022/10/22 04:50:19;;;;;;;4.80;2.10;;;18.60;86.30;;;;;;5112943;28;20030;-71
2022/10/22 04:52:44;;;;;;;6.05;2.35;;;18.50;86.30;;;;;;5111497;28;20042;-71
2022/10/22 04:55:10;;;;;;;5.05;2.00;;;18.50;86.20;;;;;;5112458;28;20040;-71
2022/10/22 04:57:36;;;;;;;5.82;2.55;;;18.50;86.30;;;;;;5111630;28;20085;-71
2022/10/22 05:00:01;;;;;;;2.97;2.00;;;18.50;86.30;;;;;;5112685;28;20028;-71
2022/10/22 05:02:27;;;;;;;4.05;1.90;;;18.50;86.40;;;;;;5111599;28;20421;-70
2022/10/22 05:04:53;;;;;;;5.25;1.90;;;18.60;86.30;;;;;;5112571;28;20028;-71
2022/10/22 05:07:18;;;;;;;4.72;2.17;;;18.50;86.30;;;;;;5096629;28;20512;-71
2022/10/22 05:09:44;;;;;;;5.40;1.90;;;18.60;86.30;;;;;;5090996;28;20154;-71
2022/10/22 05:12:09;;;;;;;5.03;1.90;;;18.50;86.30;;;;;;5092529;28;20028;-71
2022/10/22 05:14:35;;;;;;;5.30;2.50;;;18.50;86.40;;;;;;5105493;28;20034;-71
2022/10/22 05:17:01;;;;;;;5.47;1.98;;;18.50;86.30;;;;;;5112601;28;20028;-70
2022/10/22 05:19:28;;;;;;;5.25;2.20;;;18.50;86.30;;;;;;5112956;28;20027;-71
2022/10/22 05:21:55;;;;;;;5.97;2.28;;;18.50;86.40;;;;;;5098751;28;20103;-71
2022/10/22 05:24:21;;;;;;;5.30;2.17;;;18.50;86.30;;;;;;5115680;28;20051;-71
2022/10/22 05:26:50;;;;;;;6.57;2.50;;;18.50;86.40;;;;;;5115422;28;20055;-70
2022/10/22 05:29:16;;;;;;;6.05;2.15;;;18.50;86.40;;;;;;5098507;28;20031;-71
2022/10/22 05:31:41;;;;;;;5.45;2.17;;;18.50;86.30;;;;;;5116805;28;20088;-71
2022/10/22 05:34:07;;;;;;;2.75;1.90;;;18.50;86.30;;;;;;5114922;28;20032;-71
2022/10/22 05:36:33;;;;;;;4.85;2.00;;;18.50;86.30;;;;;;5115383;28;20031;-70
2022/10/22 05:38:58;;;;;;;2.67;1.95;;;18.50;86.30;;;;;;5115010;28;20024;-71
2022/10/22 05:41:25;;;;;;;2.22;1.67;;;18.50;86.30;;;;;;5115198;28;20034;-71
2022/10/22 05:43:52;;;;;;;4.00;2.35;;;18.50;86.30;;;;;;5115152;28;20023;-71
2022/10/22 05:46:19;;;;;;;4.15;1.90;;;18.50;86.40;;;;;;5098308;28;20114;-70
2022/10/22 05:48:51;;;;;;;4.03;1.85;;;18.50;86.40;;;;;;5115971;28;20375;-71
2022/10/22 05:51:17;;;;;;;5.25;1.65;;;18.50;86.40;;;;;;5115041;28;20073;-71
2022/10/22 05:53:43;;;;;;;3.65;1.77;;;18.50;86.40;;;;;;5114965;28;20023;-71
2022/10/22 05:56:11;;;;;;;6.75;2.20;;;18.50;86.40;;;;;;5115842;28;20581;-71
2022/10/22 05:58:37;;;;;;;4.38;1.95;;;18.50;86.30;;;;;;5114776;28;20498;-70
2022/10/22 06:01:07;;;;;;;3.33;1.77;;;18.50;86.40;;;;;;5098137;28;20027;-70
2022/10/22 06:03:33;;;;;;;4.25;1.92;;;18.50;86.40;;;;;;5098266;28;20051;-71
2022/10/22 06:06:00;;;;;;;6.38;2.13;;;18.50;86.40;;;;;;5109784;28;20613;-71
2022/10/22 06:08:26;;;;;;;2.88;1.65;;;18.50;86.40;;;;;;5094510;28;20020;-71
2022/10/22 06:10:51;;;;;;;5.78;1.88;;;18.50;86.40;;;;;;5077236;28;20509;-70
2022/10/22 06:13:17;;;;;;;4.22;2.00;;;18.50;86.40;;;;;;5096287;28;20025;-71
2022/10/22 06:15:42;;;;;;;5.25;1.92;;;18.50;86.40;;;;;;5115797;28;20038;-71
2022/10/22 06:18:08;;;;;;;4.53;1.90;;;18.50;86.40;;;;;;5115578;28;20020;-71
2022/10/22 06:20:34;;;;;;;3.42;1.80;;;18.50;86.40;;;;;;5115712;28;20024;-71
2022/10/22 06:22:59;;;;;;;4.35;1.92;;;18.50;86.40;;;;;;5115569;28;20401;-71
2022/10/22 06:25:25;;;;;;;4.57;1.92;;;18.50;86.40;;;;;;5114439;28;20364;-71
2022/10/22 06:27:51;;;;;;;4.80;1.63;;;18.50;86.40;;;;;;5115427;28;20015;-71
2022/10/22 06:30:16;;;;;;;4.78;1.98;;;18.50;86.40;;;;;;5113886;28;20101;-71
2022/10/22 06:32:42;;;;;;;3.70;1.90;;;18.50;86.40;;;;;;5115090;28;20031;-71
2022/10/22 06:35:08;;;;;;;3.50;1.98;;;18.50;86.40;;;;;;5114124;28;20034;-71
2022/10/22 06:37:33;;;;;;;3.40;1.77;;;18.50;86.40;;;;;;5115482;28;20023;-70
2022/10/22 06:39:59;;;;;;;4.18;1.95;;;18.50;86.50;;;;;;5114005;28;20016;-71
2022/10/22 06:42:26;;;;;;;5.03;1.75;;;18.50;86.40;;;;;;5114201;28;20026;-71
2022/10/22 06:44:51;;;;;;;2.42;1.75;;;18.50;86.50;;;;;;5115191;28;20050;-71
2022/10/22 06:47:17;;;;;;;2.15;1.63;;;18.50;86.50;;;;;;5115044;28;20020;-71
2022/10/22 06:49:43;;;;;;;4.32;2.00;;;18.50;86.50;;;;;;5113832;28;20027;-71
2022/10/22 06:52:08;;;;;;;4.05;1.90;;;18.50;86.50;;;;;;5110470;28;20051;-70
2022/10/22 06:54:34;;;;;;;5.57;1.95;;;18.50;86.50;;;;;;5084866;28;20068;-70
2022/10/22 06:57:00;;;;;;;3.13;1.88;;;18.50;86.40;;;;;;5074890;28;20387;-71
2022/10/22 06:59:25;;;;;;;4.25;2.00;;;18.50;86.50;;;;;;5073630;28;20029;-71
2022/10/22 07:01:51;;;;;;;2.95;1.83;;;18.50;86.50;;;;;;5073494;28;20396;-71
2022/10/22 07:04:16;;;;;;;4.07;1.80;;;18.50;86.40;;;;;;5074723;28;20029;-71
2022/10/22 07:06:42;;;;;;;4.00;2.00;;;18.50;86.50;;;;;;5085406;28;20028;-71
2022/10/22 07:09:08;;;;;;;6.97;1.88;;;18.50;86.40;;;;;;5094554;28;20039;-70
2022/10/22 07:11:41;;;;;;;4.43;1.80;;;18.50;86.40;;;;;;5093690;28;20059;-71
2022/10/22 07:14:07;;;;;;;3.90;1.67;;;18.50;86.40;;;;;;5102480;28;20428;-71
2022/10/22 07:16:33;;;;;;;4.25;1.88;;;18.50;86.40;;;;;;5096763;28;20031;-71
2022/10/22 07:19:02;;;;;;;3.25;1.52;;;18.50;86.40;;;;;;5113644;28;20023;-70
2022/10/22 07:21:28;;;;;;;2.17;1.95;;;18.50;86.50;;;;;;5096878;28;20028;-71
2022/10/22 07:23:54;;;;;;;10.48;2.03;;;18.50;86.40;;;;;;5096687;28;20031;-71
2022/10/22 07:26:19;;;;;;;5.15;1.80;;;18.50;86.40;;;;;;5113668;28;20024;-70
2022/10/22 07:28:45;;;;;;;5.38;1.90;;;18.50;86.50;;;;;;5113535;28;20034;-71
2022/10/22 07:31:12;;;;;;;4.18;1.90;;;18.50;86.40;;;;;;5114249;28;20062;-71
2022/10/22 07:33:38;;;;;;;3.53;1.63;;;18.50;86.50;;;;;;5096447;28;20049;-71
2022/10/22 07:36:06;;;;;;;3.80;2.08;;;18.50;86.40;;;;;;5096511;28;20030;-71
2022/10/22 07:38:32;;;;;;;4.88;1.90;;;18.50;86.40;;;;;;5113210;28;20015;-71
2022/10/22 07:40:58;;;;;;;4.13;1.85;;;18.50;86.40;;;;;;5113410;28;20564;-71
2022/10/22 07:43:24;;;;;;;3.30;1.60;;;18.50;86.40;;;;;;5112493;28;20039;-71
2022/10/22 07:45:49;;;;;;;3.35;1.90;;;18.50;86.40;;;;;;5114053;28;20047;-71
2022/10/22 07:48:15;;;;;;;3.65;1.80;;;18.50;86.50;;;;;;5114362;28;20026;-71
2022/10/22 07:50:41;;;;;;;4.35;1.75;;;18.50;86.40;;;;;;5113147;28;20048;-70
2022/10/22 07:53:07;;;;;;;2.90;1.73;;;18.50;86.50;;;;;;5096076;28;20030;-71
2022/10/22 07:55:33;;;;;;;3.72;1.50;;;18.50;86.40;;;;;;5114035;28;20419;-70
2022/10/22 07:57:59;;;;;;;2.33;1.65;;;18.50;86.40;;;;;;5108911;28;20037;-70
2022/10/22 08:00:25;;;;;;;4.97;2.05;;;18.50;86.50;;;;;;5092602;28;20058;-72
2022/10/22 08:02:50;;;;;;;3.53;1.48;;;18.50;86.40;;;;;;5092064;28;20028;-71
2022/10/22 08:05:16;;;;;;;1.98;1.30;;;18.50;84.50;;;;;;5092933;28;20504;-71
2022/10/22 08:07:42;;;;;;;3.92;1.65;;;18.50;83.40;;;;;;5091659;28;20348;-72
2022/10/22 08:10:08;;;;;;;3.38;1.27;;;18.40;83.20;;;;;;5092752;28;20024;-72
2022/10/22 08:12:34;;;;;;;2.63;1.23;;;18.40;83.20;;;;;;5073187;28;20408;-72
2022/10/22 08:14:59;;;;;;;5.15;1.42;;;18.40;85.40;;;;;;5090216;28;20023;-72
2022/10/22 08:17:26;;;;;;;3.40;1.20;;;18.40;84.10;;;;;;5092623;28;20032;-72
2022/10/22 08:19:51;;;;;;;4.95;1.52;;;18.40;84.20;;;;;;5062466;28;20028;-72
2022/10/22 08:22:17;;;;;;;4.70;1.48;;;18.40;84.20;;;;;;5079569;28;20024;-72
2022/10/22 08:24:43;;;;;;;8.77;1.60;;;18.40;84.20;;;;;;5075300;28;20495;-72
2022/10/22 08:27:08;;;;;;;6.53;1.85;;;18.40;84.20;;;;;;5073039;28;20093;-72
2022/10/22 08:29:34;;;;;;;11.70;1.85;;;18.40;84.10;;;;;;5072266;28;20023;-72
2022/10/22 08:32:01;;;;;;;7.80;1.58;;;18.40;84.20;;;;;;5073162;28;20451;-70
2022/10/22 08:34:28;;;;;;;11.35;2.47;;;18.40;84.00;;;;;;5073707;28;20020;-72
2022/10/22 08:36:54;;;;;;;10.65;2.15;;;18.40;84.00;;;;;;5072118;28;20017;-72
2022/10/22 08:39:19;;;;;;;13.52;1.90;;;18.40;83.90;;;;;;5070928;28;20092;-73
2022/10/22 08:42:06;;;;;;;9.55;1.85;;;18.30;83.80;;;;;;5072332;28;20036;-72
2022/10/22 08:44:40;;;;;;;15.60;2.53;;;18.40;83.90;;;;;;5072296;28;20478;-73
2022/10/22 08:47:15;;;;;;;13.98;2.50;;;18.40;83.80;;;;;;5072298;28;20024;-72
2022/10/22 08:49:41;;;;;;;14.10;2.60;;;18.30;83.80;;;;;;5071197;28;20079;-72
2022/10/22 08:52:09;;;;;;;17.63;2.38;;;18.30;83.80;;;;;;5071068;28;20024;-72
2022/10/22 08:54:51;;;;;;;15.65;2.42;;;18.30;83.90;;;;;;5070508;28;20032;-72
2022/10/22 08:57:39;;;;;;;11.25;2.00;;;18.30;83.80;;;;;;5070656;28;20024;-72
2022/10/22 09:00:14;;;;;;;17.13;2.85;;;18.30;83.70;;;;;;5072156;28;20017;-72
2022/10/22 09:02:58;;;;;;;10.55;2.10;;;18.30;83.70;;;;;;5071634;28;20016;-72
2022/10/22 09:05:33;;;;;;;17.85;3.20;;;18.30;83.70;;;;;;5071975;28;20107;-72
2022/10/22 09:07:59;;;;;;;11.02;2.28;;;18.30;83.70;;;;;;5071637;28;20024;-72
2022/10/22 09:10:28;;;;;;;13.45;2.40;;;18.30;83.60;;;;;;5070768;28;20102;-72
2022/10/22 09:12:54;;;;;;;14.02;2.25;;;18.30;83.60;;;;;;5054696;28;20020;-72
2022/10/22 09:15:19;;;;;;;18.20;2.47;;;18.30;83.70;;;;;;5109555;28;20410;-72
2022/10/22 09:17:59;;;;;;;12.68;2.17;;;18.30;83.70;;;;;;5112647;28;20069;-73
2022/10/22 09:20:37;;;;;;;13.07;2.55;;;18.30;83.60;;;;;;5111327;28;20024;-72
2022/10/22 09:23:24;;;;;;;17.02;2.70;;;18.30;83.70;;;;;;5095351;28;20016;-72
2022/10/22 09:25:50;;;;;;;20.90;2.88;;;18.30;83.60;;;;;;5112655;28;20085;-72
2022/10/22 09:28:16;;;;;;;15.98;2.92;;;18.20;83.70;;;;;;5094399;28;20015;-73
2022/10/22 09:30:42;;;;;;;18.38;2.75;;;18.30;83.70;;;;;;5112328;28;20477;-73
2022/10/22 09:33:24;;;;;;;13.13;2.75;;;18.30;83.60;;;;;;5094454;28;20022;-73
2022/10/22 09:36:04;;;;;;;11.70;2.33;;;18.30;83.70;;;;;;5111294;28;20023;-72
2022/10/22 09:38:31;;;;;;;22.17;2.63;;;18.20;83.60;;;;;;5094428;28;20054;-72
2022/10/22 09:40:58;;;;;;;16.13;2.80;;;18.20;83.60;;;;;;5111137;28;20389;-72
2022/10/22 09:43:24;;;;;;;18.15;2.97;;;18.20;83.50;;;;;;5111108;28;20373;-72
2022/10/22 09:46:00;;;;;;;12.55;2.38;;;18.20;83.60;;;;;;5111094;28;20019;-72
2022/10/22 09:48:33;;;;;;;23.15;3.20;;;18.20;83.60;;;;;;5112352;28;20089;-72
2022/10/22 09:51:34;;;;;;;13.25;2.25;;;18.20;83.40;;;;;;5112517;28;20059;-72
2022/10/22 09:54:01;;;;;;;15.88;2.55;;;18.20;83.60;;;;;;5112233;28;20480;-72
2022/10/22 09:56:31;;;;;;;21.92;2.80;;;18.20;83.50;;;;;;5093823;28;20023;-73
2022/10/22 09:58:57;;;;;;;19.13;2.88;;;18.20;83.60;;;;;;5112151;28;20020;-73
2022/10/22 10:01:33;;;;;;;25.42;3.15;;;18.20;83.60;;;;;;5094211;28;20509;-72
2022/10/22 10:04:16;;;;;;;15.45;2.03;;;18.20;83.60;;;;;;5094705;28;20023;-72
2022/10/22 10:06:43;;;;;;;15.40;2.50;;;18.20;83.50;;;;;;5103616;28;20028;-72
2022/10/22 10:09:23;;;;;;;19.38;2.55;;;18.20;83.60;;;;;;5077570;28;20099;-72
2022/10/22 10:12:28;;;;;;;18.88;2.92;;;18.20;83.60;;;;;;5077708;28;20026;-72
2022/10/22 10:15:06;;;;;;;16.52;2.50;;;18.20;83.60;;;;;;5111239;28;20375;-73
2022/10/22 10:17:41;;;;;;;19.15;2.53;;;18.20;83.60;;;;;;5115705;28;20397;-72
2022/10/22 10:20:22;;;;;;;16.45;2.50;;;18.20;83.50;;;;;;5115639;28;20020;-72
2022/10/22 10:23:10;;;;;;;12.70;2.42;;;18.20;83.50;;;;;;5115579;28;20117;-72
2022/10/22 10:25:45;;;;;;;17.88;2.75;;;18.20;83.50;;;;;;5107054;28;20097;-72
2022/10/22 10:28:28;;;;;;;18.70;2.75;;;18.20;83.50;;;;;;5115545;28;20050;-72
2022/10/22 10:31:18;;;;;;;19.33;2.53;;;18.20;83.50;;;;;;5115543;28;20550;-72
2022/10/22 10:34:09;;;;;;;13.45;2.97;;;18.20;83.50;;;;;;5115357;28;20030;-72
2022/10/22 10:36:47;;;;;;;24.25;3.45;;;18.20;83.50;;;;;;5099651;28;20023;-72
2022/10/22 10:39:48;;;;;;;14.45;2.67;;;18.20;83.50;;;;;;5115060;28;20073;-72
2022/10/22 10:42:22;;;;;;;15.60;2.50;;;18.10;83.40;;;;;;5111925;28;20038;-72
2022/10/22 10:45:16;;;;;;;15.95;2.97;;;18.10;83.40;;;;;;5097431;28;20508;-73
2022/10/22 10:48:07;;;;;;;15.45;3.50;;;18.20;83.40;;;;;;5115018;28;20028;-72
2022/10/22 10:50:46;;;;;;;11.15;2.65;;;18.10;83.40;;;;;;5114962;28;20051;-72
2022/10/22 10:53:34;;;;;;;18.95;2.67;;;18.20;83.40;;;;;;5113520;28;20031;-72
2022/10/22 10:56:17;;;;;;;17.67;2.92;;;18.10;83.40;;;;;;5114832;28;20048;-73
2022/10/22 10:59:06;;;;;;;18.58;2.17;;;18.20;83.50;;;;;;5093371;28;20020;-72
2022/10/22 11:01:31;;;;;;;16.95;3.13;;;18.10;83.30;;;;;;5072297;28;20024;-72
2022/10/22 11:04:36;;;;;;;11.43;2.83;;;18.10;83.40;;;;;;5088143;28;20016;-73
2022/10/22 11:07:04;;;;;;;15.00;2.47;;;18.10;83.40;;;;;;5007389;28;20049;-72
2022/10/22 11:09:35;;;;;;;10.95;2.30;;;18.10;83.40;;;;;;4991755;28;20034;-70
2022/10/22 11:12:26;;;;;;;16.38;2.60;;;18.10;83.40;;;;;;4984524;28;20042;-70
2022/10/22 11:14:58;;;;;;;18.27;3.05;;;18.10;83.40;;;;;;4998242;28;20157;-70
2022/10/22 11:17:24;;;;;;;16.65;2.60;;;18.10;83.40;;;;;;5004940;28;20064;-70
2022/10/22 11:20:20;;;;;;;14.10;2.85;;;18.10;83.40;;;;;;4991003;28;20058;-70
2022/10/22 11:22:56;;;;;;;15.05;2.30;;;18.10;83.40;;;;;;5004619;28;20031;-71
2022/10/22 11:25:38;;;;;;;17.00;2.35;;;18.10;83.40;;;;;;4990345;28;20085;-71
2022/10/22 11:28:26;;;;;;;9.10;1.92;;;18.10;83.40;;;;;;4993241;28;20092;-71
2022/10/22 11:31:03;;;;;;;13.48;2.20;;;18.10;83.50;;;;;;4976472;28;20038;-72
2022/10/22 11:33:38;;;;;;;13.20;2.22;;;18.10;83.40;;;;;;4979408;28;20034;-72
2022/10/22 11:36:04;;;;;;;15.13;2.45;;;18.10;83.40;;;;;;4975719;28;20018;-72
2022/10/22 11:38:30;;;;;;;10.57;1.98;;;18.10;83.50;;;;;;5007697;28;20030;-71
2022/10/22 11:41:08;;;;;;;12.15;2.17;;;18.10;83.60;;;;;;4994243;28;20432;-71
2022/10/22 11:43:50;;;;;;;11.18;1.98;;;18.10;83.50;;;;;;5002679;28;20032;-71
2022/10/22 11:46:16;;;;;;;13.35;2.35;;;18.10;83.50;;;;;;5058026;28;20111;-72
2022/10/22 11:48:42;;;;;;;10.25;2.10;;;18.10;83.50;;;;;;5071589;28;20104;-72
2022/10/22 11:51:34;;;;;;;15.55;2.55;;;18.10;83.60;;;;;;5070264;28;20065;-72
2022/10/22 11:54:01;;;;;;;8.77;1.95;;;18.10;83.60;;;;;;5073635;28;20112;-72
2022/10/22 11:56:36;;;;;;;16.35;3.10;;;18.10;83.60;;;;;;5050404;28;20079;-71
2022/10/22 11:59:01;;;;;;;11.60;1.85;;;18.10;83.70;;;;;;5050309;28;20068;-72
2022/10/22 12:01:40;;;;;;;7.53;1.50;;;18.10;83.70;;;;;;5051993;28;20418;-73
2022/10/22 12:04:17;;;;;;;11.30;1.60;;;18.10;83.70;;;;;;5053595;28;20048;-72
2022/10/22 12:07:00;;;;;;;9.57;1.88;;;18.10;83.70;;;;;;5052618;28;20029;-73
2022/10/22 12:09:29;;;;;;;9.38;1.83;;;18.10;83.70;;;;;;5050143;28;20017;-72
2022/10/22 12:12:00;;;;;;;10.30;2.47;;;18.10;83.70;;;;;;5056351;28;20477;-73
2022/10/22 12:14:28;;;;;;;7.60;2.00;;;18.10;83.70;;;;;;5053611;28;20105;-73
2022/10/22 12:17:13;;;;;;;13.98;1.98;;;18.10;83.70;;;;;;5052296;28;20071;-72
2022/10/22 12:19:41;;;;;;;5.75;1.70;;;18.10;83.70;;;;;;5052126;28;20039;-72
2022/10/22 12:22:06;;;;;;;5.88;1.40;;;18.10;83.60;;;;;;5051875;28;20013;-72
2022/10/22 12:24:41;;;;;;;5.72;1.60;;;18.10;83.70;;;;;;5050907;28;20031;-72
2022/10/22 12:27:26;;;;;;;9.57;1.42;;;18.10;83.60;;;;;;5054025;28;20024;-72
2022/10/22 12:29:56;;;;;;;12.32;2.47;;;18.10;83.60;;;;;;5050571;28;20118;-72
2022/10/22 12:32:22;;;;;;;9.98;1.58;;;18.10;83.60;;;;;;5049838;28;20029;-72
2022/10/22 12:34:49;;;;;;;9.57;1.98;;;18.10;83.40;;;;;;5049427;28;20021;-73
2022/10/22 12:37:15;;;;;;;5.90;1.38;;;18.10;83.40;;;;;;5051024;28;20375;-72
2022/10/22 12:39:40;;;;;;;8.63;1.30;;;18.10;83.40;;;;;;5049725;28;20016;-73
2022/10/22 12:42:07;;;;;;;9.95;2.28;;;18.10;83.40;;;;;;5049711;28;20021;-72
2022/10/22 12:44:32;;;;;;;9.60;2.03;;;18.10;83.40;;;;;;5049401;28;20441;-72
2022/10/22 12:46:58;;;;;;;6.10;1.40;;;18.10;83.40;;;;;;5049644;28;20033;-73
2022/10/22 12:49:28;;;;;;;8.48;1.60;;;18.10;83.50;;;;;;5049342;28;20071;-73
2022/10/22 12:51:54;;;;;;;5.43;1.55;;;18.10;83.40;;;;;;5051720;28;20119;-72
2022/10/22 12:54:19;;;;;;;8.15;1.70;;;18.10;83.40;;;;;;5053808;28;20269;-73
2022/10/22 12:56:46;;;;;;;8.55;1.20;;;18.10;83.40;;;;;;5070835;28;20021;-73
2022/10/22 12:59:25;;;;;;;7.30;1.65;;;18.10;83.40;;;;;;5071781;28;20394;-73
2022/10/22 13:01:51;;;;;;;9.75;2.08;;;18.10;83.40;;;;;;5070070;28;20020;-72